sensor_id;sensor_type;location;lat;lon;timestamp;P1;durP1;ratioP1;P2;durP2;ratioP2
42084;SDS011;27746;52.228;20.890;2022-09-01T00:02:01;2.85;;;1.27;;
42084;SDS011;27746;52.228;20.890;2022-09-01T00:04:34;3.85;;;1.13;;
42084;SDS011;27746;52.228;20.890;2022-09-01T00:10:31;2.42;;;1.20;;
42084;SDS011;27746;52.228;20.890;2022-09-01T00:13:00;4.28;;;1.00;;
42084;SDS011;27746;52.228;20.890;2022-09-01T00:15:44;3.38;;;1.52;;
42084;SDS011;27746;52.228;20.890;2022-09-01T00:18:15;4.57;;;1.05;;
42084;SDS011;27746;52.228;20.890;2022-09-01T00:20:48;3.72;;;1.02;;
42084;SDS011;27746;52.228;20.890;2022-09-01T00:23:24;2.72;;;0.90;;
42084;SDS011;27746;52.228;20.890;2022-09-01T00:25:53;5.53;;;1.50;;
42084;SDS011;27746;52.228;20.890;2022-09-01T00:28:28;3.13;;;1.00;;
42084;SDS011;27746;52.228;20.890;2022-09-01T00:31:15;8.55;;;1.48;;
42084;SDS011;27746;52.228;20.890;2022-09-01T00:33:45;3.67;;;1.02;;
42084;SDS011;27746;52.228;20.890;2022-09-01T00:36:24;3.75;;;1.10;;
42084;SDS011;27746;52.228;20.890;2022-09-01T00:42:20;2.88;;;1.30;;
42084;SDS011;27746;52.228;20.890;2022-09-01T00:45:28;2.92;;;1.00;;
42084;SDS011;27746;52.228;20.890;2022-09-01T00:54:12;3.17;;;0.93;;
42084;SDS011;27746;52.228;20.890;2022-09-01T00:56:48;3.13;;;1.08;;
42084;SDS011;27746;52.228;20.890;2022-09-01T00:59:23;2.15;;;1.17;;
42084;SDS011;27746;52.228;20.890;2022-09-01T01:02:01;4.85;;;1.23;;
42084;SDS011;27746;52.228;20.890;2022-09-01T01:08:31;3.53;;;1.17;;
42084;SDS011;27746;52.228;20.890;2022-09-01T01:11:20;2.00;;;0.90;;
42084;SDS011;27746;52.228;20.890;2022-09-01T01:13:50;3.08;;;1.10;;
42084;SDS011;27746;52.228;20.890;2022-09-01T01:16:41;3.45;;;1.10;;
42084;SDS011;27746;52.228;20.890;2022-09-01T01:19:43;2.58;;;1.00;;
42084;SDS011;27746;52.228;20.890;2022-09-01T01:22:36;2.55;;;1.35;;
42084;SDS011;27746;52.228;20.890;2022-09-01T01:25:29;3.28;;;1.38;;
42084;SDS011;27746;52.228;20.890;2022-09-01T01:28:03;3.10;;;1.20;;
42084;SDS011;27746;52.228;20.890;2022-09-01T01:30:49;2.58;;;1.00;;
42084;SDS011;27746;52.228;20.890;2022-09-01T01:33:20;3.25;;;1.23;;
42084;SDS011;27746;52.228;20.890;2022-09-01T01:35:49;2.38;;;1.17;;
42084;SDS011;27746;52.228;20.890;2022-09-01T01:38:18;2.40;;;1.00;;
42084;SDS011;27746;52.228;20.890;2022-09-01T01:50:58;1.98;;;0.98;;
42084;SDS011;27746;52.228;20.890;2022-09-01T02:38:20;3.10;;;1.50;;
42084;SDS011;27746;52.228;20.890;2022-09-01T02:40:58;3.08;;;1.20;;
42084;SDS011;27746;52.228;20.890;2022-09-01T02:43:27;4.40;;;1.20;;
42084;SDS011;27746;52.228;20.890;2022-09-01T02:46:00;3.67;;;1.40;;
42084;SDS011;27746;52.228;20.890;2022-09-01T02:48:28;3.95;;;1.30;;
42084;SDS011;27746;52.228;20.890;2022-09-01T02:51:00;2.55;;;1.30;;
42084;SDS011;27746;52.228;20.890;2022-09-01T02:53:29;5.07;;;1.63;;
42084;SDS011;27746;52.228;20.890;2022-09-01T02:55:58;2.13;;;1.13;;
42084;SDS011;27746;52.228;20.890;2022-09-01T02:58:26;4.90;;;1.40;;
42084;SDS011;27746;52.228;20.890;2022-09-01T03:00:57;2.70;;;1.35;;
42084;SDS011;27746;52.228;20.890;2022-09-01T03:03:24;3.28;;;1.20;;
42084;SDS011;27746;52.228;20.890;2022-09-01T03:05:52;3.38;;;1.23;;
42084;SDS011;27746;52.228;20.890;2022-09-01T03:08:20;2.83;;;1.30;;
42084;SDS011;27746;52.228;20.890;2022-09-01T03:10:50;2.25;;;1.13;;
42084;SDS011;27746;52.228;20.890;2022-09-01T03:13:18;4.40;;;1.40;;
42084;SDS011;27746;52.228;20.890;2022-09-01T03:15:47;2.70;;;1.30;;
42084;SDS011;27746;52.228;20.890;2022-09-01T03:18:16;2.90;;;1.58;;
42084;SDS011;27746;52.228;20.890;2022-09-01T03:20:44;4.10;;;1.42;;
42084;SDS011;27746;52.228;20.890;2022-09-01T03:23:13;5.43;;;1.60;;
42084;SDS011;27746;52.228;20.890;2022-09-01T03:25:42;3.83;;;1.25;;
42084;SDS011;27746;52.228;20.890;2022-09-01T03:28:12;3.63;;;1.55;;
42084;SDS011;27746;52.228;20.890;2022-09-01T03:30:43;5.45;;;2.38;;
42084;SDS011;27746;52.228;20.890;2022-09-01T03:33:13;3.25;;;1.42;;
42084;SDS011;27746;52.228;20.890;2022-09-01T03:35:41;3.83;;;1.25;;
42084;SDS011;27746;52.228;20.890;2022-09-01T03:38:09;3.40;;;1.25;;
42084;SDS011;27746;52.228;20.890;2022-09-01T03:40:38;3.78;;;1.48;;
42084;SDS011;27746;52.228;20.890;2022-09-01T03:43:06;4.55;;;1.63;;
42084;SDS011;27746;52.228;20.890;2022-09-01T03:45:36;3.75;;;1.50;;
42084;SDS011;27746;52.228;20.890;2022-09-01T03:48:03;2.85;;;1.50;;
42084;SDS011;27746;52.228;20.890;2022-09-01T03:50:33;3.13;;;1.30;;
42084;SDS011;27746;52.228;20.890;2022-09-01T03:53:09;4.15;;;1.42;;
42084;SDS011;27746;52.228;20.890;2022-09-01T03:55:37;3.67;;;1.58;;
42084;SDS011;27746;52.228;20.890;2022-09-01T03:58:05;4.30;;;1.73;;
42084;SDS011;27746;52.228;20.890;2022-09-01T04:00:34;4.82;;;1.48;;
42084;SDS011;27746;52.228;20.890;2022-09-01T04:03:05;5.95;;;1.60;;
42084;SDS011;27746;52.228;20.890;2022-09-01T04:05:33;5.70;;;2.20;;
42084;SDS011;27746;52.228;20.890;2022-09-01T04:08:03;4.53;;;1.63;;
42084;SDS011;27746;52.228;20.890;2022-09-01T04:10:31;3.83;;;1.65;;
42084;SDS011;27746;52.228;20.890;2022-09-01T04:13:00;5.75;;;1.80;;
42084;SDS011;27746;52.228;20.890;2022-09-01T04:15:28;4.40;;;1.70;;
42084;SDS011;27746;52.228;20.890;2022-09-01T04:17:57;4.03;;;1.60;;
42084;SDS011;27746;52.228;20.890;2022-09-01T04:20:33;4.55;;;1.90;;
42084;SDS011;27746;52.228;20.890;2022-09-01T04:23:12;4.78;;;1.77;;
42084;SDS011;27746;52.228;20.890;2022-09-01T04:25:44;4.30;;;1.80;;
42084;SDS011;27746;52.228;20.890;2022-09-01T04:28:14;5.78;;;1.88;;
42084;SDS011;27746;52.228;20.890;2022-09-01T04:30:47;10.90;;;3.95;;
42084;SDS011;27746;52.228;20.890;2022-09-01T04:33:16;11.18;;;2.50;;
42084;SDS011;27746;52.228;20.890;2022-09-01T04:35:43;4.45;;;2.13;;
42084;SDS011;27746;52.228;20.890;2022-09-01T04:38:10;3.65;;;1.70;;
42084;SDS011;27746;52.228;20.890;2022-09-01T04:40:40;3.40;;;1.80;;
42084;SDS011;27746;52.228;20.890;2022-09-01T04:43:07;2.67;;;1.40;;
42084;SDS011;27746;52.228;20.890;2022-09-01T04:45:34;3.38;;;2.42;;
42084;SDS011;27746;52.228;20.890;2022-09-01T04:48:02;3.10;;;1.80;;
42084;SDS011;27746;52.228;20.890;2022-09-01T04:50:52;5.47;;;1.67;;
42084;SDS011;27746;52.228;20.890;2022-09-01T04:53:20;4.15;;;1.67;;
42084;SDS011;27746;52.228;20.890;2022-09-01T04:55:49;4.45;;;1.45;;
42084;SDS011;27746;52.228;20.890;2022-09-01T04:58:19;3.95;;;1.77;;
42084;SDS011;27746;52.228;20.890;2022-09-01T05:00:47;5.10;;;1.88;;
42084;SDS011;27746;52.228;20.890;2022-09-01T05:03:17;5.88;;;1.77;;
42084;SDS011;27746;52.228;20.890;2022-09-01T05:05:50;6.82;;;2.20;;
42084;SDS011;27746;52.228;20.890;2022-09-01T05:08:33;5.88;;;1.50;;
42084;SDS011;27746;52.228;20.890;2022-09-01T05:11:02;3.85;;;1.75;;
42084;SDS011;27746;52.228;20.890;2022-09-01T05:13:31;6.47;;;1.65;;
42084;SDS011;27746;52.228;20.890;2022-09-01T05:15:59;3.67;;;1.70;;
42084;SDS011;27746;52.228;20.890;2022-09-01T05:18:30;4.15;;;1.67;;
42084;SDS011;27746;52.228;20.890;2022-09-01T05:21:03;5.45;;;1.38;;
42084;SDS011;27746;52.228;20.890;2022-09-01T05:23:35;4.05;;;1.42;;
42084;SDS011;27746;52.228;20.890;2022-09-01T05:26:02;6.35;;;1.50;;
42084;SDS011;27746;52.228;20.890;2022-09-01T05:28:32;7.53;;;1.38;;
42084;SDS011;27746;52.228;20.890;2022-09-01T05:31:05;6.18;;;1.77;;
42084;SDS011;27746;52.228;20.890;2022-09-01T05:33:34;4.57;;;1.45;;
42084;SDS011;27746;52.228;20.890;2022-09-01T05:36:05;3.97;;;1.60;;
42084;SDS011;27746;52.228;20.890;2022-09-01T05:38:33;5.03;;;1.80;;
42084;SDS011;27746;52.228;20.890;2022-09-01T05:41:03;7.07;;;1.45;;
42084;SDS011;27746;52.228;20.890;2022-09-01T05:43:32;6.22;;;1.95;;
42084;SDS011;27746;52.228;20.890;2022-09-01T05:46:00;5.65;;;2.30;;
42084;SDS011;27746;52.228;20.890;2022-09-01T05:48:31;4.13;;;1.50;;
42084;SDS011;27746;52.228;20.890;2022-09-01T05:51:05;3.92;;;1.50;;
42084;SDS011;27746;52.228;20.890;2022-09-01T05:53:33;3.78;;;1.40;;
42084;SDS011;27746;52.228;20.890;2022-09-01T05:56:00;6.30;;;1.52;;
42084;SDS011;27746;52.228;20.890;2022-09-01T05:58:32;3.92;;;1.50;;
42084;SDS011;27746;52.228;20.890;2022-09-01T06:01:01;3.70;;;1.45;;
42084;SDS011;27746;52.228;20.890;2022-09-01T06:03:46;6.30;;;1.75;;
42084;SDS011;27746;52.228;20.890;2022-09-01T06:06:24;6.80;;;1.77;;
42084;SDS011;27746;52.228;20.890;2022-09-01T06:08:56;6.00;;;2.20;;
42084;SDS011;27746;52.228;20.890;2022-09-01T06:11:23;5.30;;;1.30;;
42084;SDS011;27746;52.228;20.890;2022-09-01T06:13:52;4.90;;;1.40;;
42084;SDS011;27746;52.228;20.890;2022-09-01T06:16:20;6.53;;;1.70;;
42084;SDS011;27746;52.228;20.890;2022-09-01T06:18:48;4.60;;;1.45;;
42084;SDS011;27746;52.228;20.890;2022-09-01T06:21:16;3.97;;;1.30;;
42084;SDS011;27746;52.228;20.890;2022-09-01T06:23:45;2.53;;;1.02;;
42084;SDS011;27746;52.228;20.890;2022-09-01T06:26:15;4.90;;;1.17;;
42084;SDS011;27746;52.228;20.890;2022-09-01T06:28:42;7.07;;;1.65;;
42084;SDS011;27746;52.228;20.890;2022-09-01T06:31:09;6.20;;;1.40;;
42084;SDS011;27746;52.228;20.890;2022-09-01T06:33:37;4.43;;;1.75;;
42084;SDS011;27746;52.228;20.890;2022-09-01T06:36:04;6.53;;;1.45;;
42084;SDS011;27746;52.228;20.890;2022-09-01T06:38:33;3.10;;;1.00;;
42084;SDS011;27746;52.228;20.890;2022-09-01T06:41:03;5.78;;;1.60;;
42084;SDS011;27746;52.228;20.890;2022-09-01T06:43:36;2.30;;;1.10;;
42084;SDS011;27746;52.228;20.890;2022-09-01T06:46:05;4.13;;;1.50;;
42084;SDS011;27746;52.228;20.890;2022-09-01T06:48:32;4.63;;;1.48;;
42084;SDS011;27746;52.228;20.890;2022-09-01T06:50:59;3.88;;;1.40;;
42084;SDS011;27746;52.228;20.890;2022-09-01T06:53:27;5.30;;;0.90;;
42084;SDS011;27746;52.228;20.890;2022-09-01T06:55:56;8.77;;;1.58;;
42084;SDS011;27746;52.228;20.890;2022-09-01T06:58:24;3.03;;;0.90;;
42084;SDS011;27746;52.228;20.890;2022-09-01T07:00:52;5.05;;;1.50;;
42084;SDS011;27746;52.228;20.890;2022-09-01T07:03:19;7.05;;;1.55;;
42084;SDS011;27746;52.228;20.890;2022-09-01T07:05:46;5.68;;;1.30;;
42084;SDS011;27746;52.228;20.890;2022-09-01T07:08:17;4.13;;;1.00;;
42084;SDS011;27746;52.228;20.890;2022-09-01T07:10:46;2.70;;;0.80;;
42084;SDS011;27746;52.228;20.890;2022-09-01T07:13:15;2.33;;;0.82;;
42084;SDS011;27746;52.228;20.890;2022-09-01T07:18:17;3.72;;;0.70;;
42084;SDS011;27746;52.228;20.890;2022-09-01T07:20:45;3.33;;;1.35;;
42084;SDS011;27746;52.228;20.890;2022-09-01T07:23:13;2.35;;;0.80;;
42084;SDS011;27746;52.228;20.890;2022-09-01T07:25:42;2.60;;;0.95;;
42084;SDS011;27746;52.228;20.890;2022-09-01T07:28:12;3.08;;;0.57;;
42084;SDS011;27746;52.228;20.890;2022-09-01T07:30:40;1.33;;;0.57;;
42084;SDS011;27746;52.228;20.890;2022-09-01T07:33:11;3.70;;;0.68;;
42084;SDS011;27746;52.228;20.890;2022-09-01T07:35:38;2.95;;;0.90;;
42084;SDS011;27746;52.228;20.890;2022-09-01T07:38:06;3.60;;;0.70;;
42084;SDS011;27746;52.228;20.890;2022-09-01T07:40:36;8.35;;;1.30;;
42084;SDS011;27746;52.228;20.890;2022-09-01T07:43:05;2.20;;;0.88;;
42084;SDS011;27746;52.228;20.890;2022-09-01T07:45:34;3.17;;;0.80;;
42084;SDS011;27746;52.228;20.890;2022-09-01T07:48:04;2.95;;;0.80;;
42084;SDS011;27746;52.228;20.890;2022-09-01T07:50:34;6.97;;;0.90;;
42084;SDS011;27746;52.228;20.890;2022-09-01T07:53:02;2.05;;;0.70;;
42084;SDS011;27746;52.228;20.890;2022-09-01T07:55:29;4.10;;;0.60;;
42084;SDS011;27746;52.228;20.890;2022-09-01T07:57:56;2.05;;;0.70;;
42084;SDS011;27746;52.228;20.890;2022-09-01T08:00:23;4.10;;;0.52;;
42084;SDS011;27746;52.228;20.890;2022-09-01T08:02:52;5.90;;;0.70;;
42084;SDS011;27746;52.228;20.890;2022-09-01T08:05:19;2.35;;;0.60;;
42084;SDS011;27746;52.228;20.890;2022-09-01T08:07:51;2.95;;;0.80;;
42084;SDS011;27746;52.228;20.890;2022-09-01T08:10:18;2.17;;;0.90;;
42084;SDS011;27746;52.228;20.890;2022-09-01T08:12:45;4.53;;;0.90;;
42084;SDS011;27746;52.228;20.890;2022-09-01T08:15:12;1.85;;;0.75;;
42084;SDS011;27746;52.228;20.890;2022-09-01T08:17:41;2.40;;;0.60;;
42084;SDS011;27746;52.228;20.890;2022-09-01T08:20:09;2.42;;;0.95;;
42084;SDS011;27746;52.228;20.890;2022-09-01T08:22:36;3.30;;;0.60;;
42084;SDS011;27746;52.228;20.890;2022-09-01T08:25:05;2.35;;;0.55;;
42084;SDS011;27746;52.228;20.890;2022-09-01T08:27:33;1.65;;;0.60;;
42084;SDS011;27746;52.228;20.890;2022-09-01T08:30:02;3.40;;;0.60;;
42084;SDS011;27746;52.228;20.890;2022-09-01T08:32:31;3.35;;;0.40;;
42084;SDS011;27746;52.228;20.890;2022-09-01T08:34:58;2.90;;;0.80;;
42084;SDS011;27746;52.228;20.890;2022-09-01T08:37:25;2.45;;;0.57;;
42084;SDS011;27746;52.228;20.890;2022-09-01T08:39:52;2.53;;;0.70;;
42084;SDS011;27746;52.228;20.890;2022-09-01T08:42:23;2.58;;;0.70;;
42084;SDS011;27746;52.228;20.890;2022-09-01T08:45:06;2.00;;;0.50;;
42084;SDS011;27746;52.228;20.890;2022-09-01T08:47:40;5.85;;;0.75;;
42084;SDS011;27746;52.228;20.890;2022-09-01T08:50:07;5.13;;;0.80;;
42084;SDS011;27746;52.228;20.890;2022-09-01T08:52:37;1.52;;;0.47;;
42084;SDS011;27746;52.228;20.890;2022-09-01T08:55:08;2.70;;;0.57;;
42084;SDS011;27746;52.228;20.890;2022-09-01T08:57:42;2.28;;;0.75;;
42084;SDS011;27746;52.228;20.890;2022-09-01T09:00:13;1.65;;;0.60;;
42084;SDS011;27746;52.228;20.890;2022-09-01T09:02:50;4.32;;;0.93;;
42084;SDS011;27746;52.228;20.890;2022-09-01T09:05:29;1.98;;;0.50;;
42084;SDS011;27746;52.228;20.890;2022-09-01T09:08:07;1.73;;;0.45;;
42084;SDS011;27746;52.228;20.890;2022-09-01T09:10:53;2.80;;;0.40;;
42084;SDS011;27746;52.228;20.890;2022-09-01T09:13:27;1.58;;;0.50;;
42084;SDS011;27746;52.228;20.890;2022-09-01T09:16:05;2.78;;;0.52;;
42084;SDS011;27746;52.228;20.890;2022-09-01T09:18:37;1.95;;;0.60;;
42084;SDS011;27746;52.228;20.890;2022-09-01T09:21:10;1.77;;;0.40;;
42084;SDS011;27746;52.228;20.890;2022-09-01T09:23:41;0.87;;;0.40;;
42084;SDS011;27746;52.228;20.890;2022-09-01T09:26:11;1.85;;;0.60;;
42084;SDS011;27746;52.228;20.890;2022-09-01T09:28:39;2.00;;;0.80;;
42084;SDS011;27746;52.228;20.890;2022-09-01T09:31:25;1.02;;;0.32;;
42084;SDS011;27746;52.228;20.890;2022-09-01T09:33:57;3.55;;;0.70;;
42084;SDS011;27746;52.228;20.890;2022-09-01T09:36:28;3.53;;;0.68;;
42084;SDS011;27746;52.228;20.890;2022-09-01T09:39:08;2.35;;;0.60;;
42084;SDS011;27746;52.228;20.890;2022-09-01T09:41:37;2.05;;;0.60;;
42084;SDS011;27746;52.228;20.890;2022-09-01T09:44:15;2.15;;;0.60;;
42084;SDS011;27746;52.228;20.890;2022-09-01T09:46:46;1.20;;;0.60;;
42084;SDS011;27746;52.228;20.890;2022-09-01T09:49:15;1.50;;;0.60;;
42084;SDS011;27746;52.228;20.890;2022-09-01T09:51:46;2.17;;;0.57;;
42084;SDS011;27746;52.228;20.890;2022-09-01T09:54:17;5.35;;;0.95;;
42084;SDS011;27746;52.228;20.890;2022-09-01T09:56:47;1.45;;;0.50;;
42084;SDS011;27746;52.228;20.890;2022-09-01T09:59:28;3.00;;;0.50;;
42084;SDS011;27746;52.228;20.890;2022-09-01T10:01:57;4.20;;;0.63;;
42084;SDS011;27746;52.228;20.890;2022-09-01T10:04:31;2.40;;;0.68;;
42084;SDS011;27746;52.228;20.890;2022-09-01T10:07:01;1.30;;;0.57;;
42084;SDS011;27746;52.228;20.890;2022-09-01T10:09:42;1.52;;;0.60;;
42084;SDS011;27746;52.228;20.890;2022-09-01T10:12:08;3.80;;;0.50;;
42084;SDS011;27746;52.228;20.890;2022-09-01T10:14:39;2.92;;;0.60;;
42084;SDS011;27746;52.228;20.890;2022-09-01T10:17:10;1.92;;;0.77;;
42084;SDS011;27746;52.228;20.890;2022-09-01T10:19:46;1.70;;;0.55;;
42084;SDS011;27746;52.228;20.890;2022-09-01T10:22:16;2.75;;;0.70;;
42084;SDS011;27746;52.228;20.890;2022-09-01T10:24:42;3.25;;;0.52;;
42084;SDS011;27746;52.228;20.890;2022-09-01T10:27:10;1.75;;;0.30;;
42084;SDS011;27746;52.228;20.890;2022-09-01T10:29:44;3.65;;;0.60;;
42084;SDS011;27746;52.228;20.890;2022-09-01T10:32:15;2.25;;;0.30;;
42084;SDS011;27746;52.228;20.890;2022-09-01T10:34:45;2.17;;;0.65;;
42084;SDS011;27746;52.228;20.890;2022-09-01T10:37:13;0.88;;;0.32;;
42084;SDS011;27746;52.228;20.890;2022-09-01T10:42:36;1.67;;;0.40;;
42084;SDS011;27746;52.228;20.890;2022-09-01T10:45:05;1.85;;;0.45;;
42084;SDS011;27746;52.228;20.890;2022-09-01T10:47:43;0.82;;;0.40;;
42084;SDS011;27746;52.228;20.890;2022-09-01T10:50:24;2.08;;;0.60;;
42084;SDS011;27746;52.228;20.890;2022-09-01T10:52:57;9.32;;;1.23;;
42084;SDS011;27746;52.228;20.890;2022-09-01T10:55:37;8.52;;;0.75;;
42084;SDS011;27746;52.228;20.890;2022-09-01T11:01:09;1.27;;;0.40;;
42084;SDS011;27746;52.228;20.890;2022-09-01T11:03:49;1.45;;;0.40;;
42084;SDS011;27746;52.228;20.890;2022-09-01T11:09:02;1.83;;;0.60;;
42084;SDS011;27746;52.228;20.890;2022-09-01T11:11:33;2.67;;;0.50;;
42084;SDS011;27746;52.228;20.890;2022-09-01T11:14:15;4.45;;;0.47;;
42084;SDS011;27746;52.228;20.890;2022-09-01T11:19:36;1.33;;;0.40;;
42084;SDS011;27746;52.228;20.890;2022-09-01T11:22:08;3.17;;;0.70;;
42084;SDS011;27746;52.228;20.890;2022-09-01T11:24:46;1.35;;;0.40;;
42084;SDS011;27746;52.228;20.890;2022-09-01T11:30:17;0.90;;;0.30;;
42084;SDS011;27746;52.228;20.890;2022-09-01T11:32:46;4.22;;;0.50;;
42084;SDS011;27746;52.228;20.890;2022-09-01T11:35:18;4.70;;;0.70;;
42084;SDS011;27746;52.228;20.890;2022-09-01T11:40:19;1.45;;;0.70;;
42084;SDS011;27746;52.228;20.890;2022-09-01T11:42:48;2.17;;;0.45;;
42084;SDS011;27746;52.228;20.890;2022-09-01T11:45:20;2.38;;;0.80;;
42084;SDS011;27746;52.228;20.890;2022-09-01T11:47:50;2.90;;;0.70;;
42084;SDS011;27746;52.228;20.890;2022-09-01T11:50:22;3.42;;;0.88;;
42084;SDS011;27746;52.228;20.890;2022-09-01T11:52:52;2.50;;;0.55;;
42084;SDS011;27746;52.228;20.890;2022-09-01T11:55:28;3.60;;;0.70;;
42084;SDS011;27746;52.228;20.890;2022-09-01T11:57:56;3.70;;;0.77;;
42084;SDS011;27746;52.228;20.890;2022-09-01T12:00:25;2.67;;;0.90;;
42084;SDS011;27746;52.228;20.890;2022-09-01T12:02:53;2.65;;;0.73;;
42084;SDS011;27746;52.228;20.890;2022-09-01T12:05:27;3.42;;;0.85;;
42084;SDS011;27746;52.228;20.890;2022-09-01T12:07:56;2.45;;;0.68;;
42084;SDS011;27746;52.228;20.890;2022-09-01T12:10:27;4.65;;;0.57;;
42084;SDS011;27746;52.228;20.890;2022-09-01T12:13:01;2.33;;;0.63;;
42084;SDS011;27746;52.228;20.890;2022-09-01T12:15:30;2.47;;;0.75;;
42084;SDS011;27746;52.228;20.890;2022-09-01T12:18:10;3.05;;;0.55;;
42084;SDS011;27746;52.228;20.890;2022-09-01T12:20:41;1.58;;;0.57;;
42084;SDS011;27746;52.228;20.890;2022-09-01T12:23:15;2.45;;;0.63;;
42084;SDS011;27746;52.228;20.890;2022-09-01T12:25:48;3.78;;;0.50;;
42084;SDS011;27746;52.228;20.890;2022-09-01T12:28:15;3.17;;;0.90;;
42084;SDS011;27746;52.228;20.890;2022-09-01T12:30:42;1.60;;;0.50;;
42084;SDS011;27746;52.228;20.890;2022-09-01T12:33:10;4.50;;;0.70;;
42084;SDS011;27746;52.228;20.890;2022-09-01T12:35:38;2.65;;;0.70;;
42084;SDS011;27746;52.228;20.890;2022-09-01T12:38:27;3.08;;;0.65;;
42084;SDS011;27746;52.228;20.890;2022-09-01T12:40:56;3.47;;;0.80;;
42084;SDS011;27746;52.228;20.890;2022-09-01T12:43:27;2.35;;;0.95;;
42084;SDS011;27746;52.228;20.890;2022-09-01T12:45:56;3.60;;;0.63;;
42084;SDS011;27746;52.228;20.890;2022-09-01T12:48:25;2.75;;;0.60;;
42084;SDS011;27746;52.228;20.890;2022-09-01T12:50:55;2.63;;;0.75;;
42084;SDS011;27746;52.228;20.890;2022-09-01T12:53:25;3.00;;;0.95;;
42084;SDS011;27746;52.228;20.890;2022-09-01T12:55:59;0.98;;;0.55;;
42084;SDS011;27746;52.228;20.890;2022-09-01T12:58:31;1.35;;;0.50;;
42084;SDS011;27746;52.228;20.890;2022-09-01T13:01:00;1.90;;;0.70;;
42084;SDS011;27746;52.228;20.890;2022-09-01T13:03:29;3.72;;;0.80;;
42084;SDS011;27746;52.228;20.890;2022-09-01T13:05:57;1.50;;;0.47;;
42084;SDS011;27746;52.228;20.890;2022-09-01T13:08:27;1.85;;;0.90;;
42084;SDS011;27746;52.228;20.890;2022-09-01T13:10:58;1.30;;;0.40;;
42084;SDS011;27746;52.228;20.890;2022-09-01T13:13:28;1.40;;;0.50;;
42084;SDS011;27746;52.228;20.890;2022-09-01T13:15:56;2.35;;;0.60;;
42084;SDS011;27746;52.228;20.890;2022-09-01T13:18:25;3.75;;;0.60;;
42084;SDS011;27746;52.228;20.890;2022-09-01T13:20:52;3.00;;;0.60;;
42084;SDS011;27746;52.228;20.890;2022-09-01T13:23:20;1.42;;;0.60;;
42084;SDS011;27746;52.228;20.890;2022-09-01T13:25:49;3.65;;;0.60;;
42084;SDS011;27746;52.228;20.890;2022-09-01T13:28:16;2.67;;;0.60;;
42084;SDS011;27746;52.228;20.890;2022-09-01T13:30:43;2.28;;;0.60;;
42084;SDS011;27746;52.228;20.890;2022-09-01T13:33:16;1.48;;;0.50;;
42084;SDS011;27746;52.228;20.890;2022-09-01T13:35:43;2.55;;;0.43;;
42084;SDS011;27746;52.228;20.890;2022-09-01T13:38:10;1.52;;;0.70;;
42084;SDS011;27746;52.228;20.890;2022-09-01T13:40:40;2.15;;;0.82;;
42084;SDS011;27746;52.228;20.890;2022-09-01T13:43:08;1.77;;;0.65;;
42084;SDS011;27746;52.228;20.890;2022-09-01T13:45:35;2.95;;;0.88;;
42084;SDS011;27746;52.228;20.890;2022-09-01T13:48:04;1.60;;;0.50;;
42084;SDS011;27746;52.228;20.890;2022-09-01T13:50:31;2.33;;;0.82;;
42084;SDS011;27746;52.228;20.890;2022-09-01T13:52:58;2.65;;;0.60;;
42084;SDS011;27746;52.228;20.890;2022-09-01T13:55:26;3.10;;;0.70;;
42084;SDS011;27746;52.228;20.890;2022-09-01T13:57:54;5.30;;;0.90;;
42084;SDS011;27746;52.228;20.890;2022-09-01T14:00:24;1.73;;;0.50;;
42084;SDS011;27746;52.228;20.890;2022-09-01T14:02:54;3.70;;;0.60;;
42084;SDS011;27746;52.228;20.890;2022-09-01T14:05:23;2.80;;;0.80;;
42084;SDS011;27746;52.228;20.890;2022-09-01T14:07:52;4.22;;;0.60;;
42084;SDS011;27746;52.228;20.890;2022-09-01T14:10:20;1.65;;;0.50;;
42084;SDS011;27746;52.228;20.890;2022-09-01T14:12:48;1.60;;;0.40;;
42084;SDS011;27746;52.228;20.890;2022-09-01T14:15:15;3.20;;;0.80;;
42084;SDS011;27746;52.228;20.890;2022-09-01T14:17:45;2.22;;;0.70;;
42084;SDS011;27746;52.228;20.890;2022-09-01T14:20:14;2.47;;;0.73;;
42084;SDS011;27746;52.228;20.890;2022-09-01T14:22:44;1.17;;;0.57;;
42084;SDS011;27746;52.228;20.890;2022-09-01T14:25:11;3.35;;;0.63;;
42084;SDS011;27746;52.228;20.890;2022-09-01T14:27:38;4.65;;;0.73;;
42084;SDS011;27746;52.228;20.890;2022-09-01T14:30:06;3.08;;;0.90;;
42084;SDS011;27746;52.228;20.890;2022-09-01T14:32:35;1.40;;;0.70;;
42084;SDS011;27746;52.228;20.890;2022-09-01T14:35:05;2.83;;;0.98;;
42084;SDS011;27746;52.228;20.890;2022-09-01T14:37:33;4.47;;;0.77;;
42084;SDS011;27746;52.228;20.890;2022-09-01T14:40:03;3.22;;;0.73;;
42084;SDS011;27746;52.228;20.890;2022-09-01T14:42:33;2.88;;;0.60;;
42084;SDS011;27746;52.228;20.890;2022-09-01T14:45:01;4.85;;;0.63;;
42084;SDS011;27746;52.228;20.890;2022-09-01T14:47:28;3.63;;;0.80;;
42084;SDS011;27746;52.228;20.890;2022-09-01T14:49:56;1.70;;;0.63;;
42084;SDS011;27746;52.228;20.890;2022-09-01T14:52:24;3.35;;;1.20;;
42084;SDS011;27746;52.228;20.890;2022-09-01T14:54:52;1.75;;;0.60;;
42084;SDS011;27746;52.228;20.890;2022-09-01T14:57:19;2.72;;;0.50;;
42084;SDS011;27746;52.228;20.890;2022-09-01T14:59:46;1.13;;;0.50;;
42084;SDS011;27746;52.228;20.890;2022-09-01T15:02:13;2.20;;;0.55;;
42084;SDS011;27746;52.228;20.890;2022-09-01T15:04:40;3.25;;;0.77;;
42084;SDS011;27746;52.228;20.890;2022-09-01T15:07:07;6.47;;;0.60;;
42084;SDS011;27746;52.228;20.890;2022-09-01T15:09:35;6.07;;;0.75;;
42084;SDS011;27746;52.228;20.890;2022-09-01T15:12:02;1.67;;;0.63;;
42084;SDS011;27746;52.228;20.890;2022-09-01T15:14:30;3.97;;;0.65;;
42084;SDS011;27746;52.228;20.890;2022-09-01T15:16:57;1.67;;;0.60;;
42084;SDS011;27746;52.228;20.890;2022-09-01T15:19:24;1.75;;;0.65;;
42084;SDS011;27746;52.228;20.890;2022-09-01T15:21:51;2.50;;;0.47;;
42084;SDS011;27746;52.228;20.890;2022-09-01T15:24:18;1.58;;;0.45;;
42084;SDS011;27746;52.228;20.890;2022-09-01T15:26:46;4.63;;;0.80;;
42084;SDS011;27746;52.228;20.890;2022-09-01T15:29:14;3.70;;;0.75;;
42084;SDS011;27746;52.228;20.890;2022-09-01T15:31:41;2.40;;;0.60;;
42084;SDS011;27746;52.228;20.890;2022-09-01T15:34:09;3.13;;;0.70;;
42084;SDS011;27746;52.228;20.890;2022-09-01T15:36:37;3.28;;;0.50;;
42084;SDS011;27746;52.228;20.890;2022-09-01T15:39:06;3.50;;;0.80;;
42084;SDS011;27746;52.228;20.890;2022-09-01T15:41:34;6.53;;;0.75;;
42084;SDS011;27746;52.228;20.890;2022-09-01T15:44:04;2.80;;;0.50;;
42084;SDS011;27746;52.228;20.890;2022-09-01T15:46:33;3.10;;;0.55;;
42084;SDS011;27746;52.228;20.890;2022-09-01T15:49:03;4.20;;;0.60;;
42084;SDS011;27746;52.228;20.890;2022-09-01T15:51:32;4.68;;;1.00;;
42084;SDS011;27746;52.228;20.890;2022-09-01T15:54:02;9.48;;;0.85;;
42084;SDS011;27746;52.228;20.890;2022-09-01T15:56:31;3.33;;;0.55;;
42084;SDS011;27746;52.228;20.890;2022-09-01T15:58:59;6.53;;;0.70;;
42084;SDS011;27746;52.228;20.890;2022-09-01T16:01:29;2.35;;;0.65;;
42084;SDS011;27746;52.228;20.890;2022-09-01T16:03:57;1.17;;;0.50;;
42084;SDS011;27746;52.228;20.890;2022-09-01T16:06:25;2.30;;;0.45;;
42084;SDS011;27746;52.228;20.890;2022-09-01T16:08:52;3.83;;;0.50;;
42084;SDS011;27746;52.228;20.890;2022-09-01T16:14:01;2.53;;;0.50;;
42084;SDS011;27746;52.228;20.890;2022-09-01T16:16:35;5.28;;;0.63;;
42084;SDS011;27746;52.228;20.890;2022-09-01T16:19:20;4.70;;;0.70;;
42084;SDS011;27746;52.228;20.890;2022-09-01T16:21:58;2.40;;;0.60;;
42084;SDS011;27746;52.228;20.890;2022-09-01T16:24:31;2.38;;;0.65;;
42084;SDS011;27746;52.228;20.890;2022-09-01T16:27:11;2.25;;;0.73;;
42084;SDS011;27746;52.228;20.890;2022-09-01T16:29:43;1.90;;;0.57;;